createdAt,value
2023-02-09T00:01:36.152Z,33.38
2023-02-09T00:04:03.896Z,36.25
2023-02-09T00:06:31.427Z,32.10
2023-02-09T00:08:59.733Z,38.47
2023-02-09T00:11:48.010Z,38.58
2023-02-09T00:14:19.217Z,34.90
2023-02-09T00:16:48.873Z,44.40
2023-02-09T00:19:16.872Z,39.88
2023-02-09T00:21:44.438Z,37.70
2023-02-09T00:24:14.764Z,37.10
2023-02-09T00:26:42.628Z,37.88
2023-02-09T00:29:10.449Z,38.80
2023-02-09T00:31:38.028Z,36.70
2023-02-09T00:34:05.990Z,40.20
2023-02-09T00:36:33.994Z,39.08
2023-02-09T00:39:01.486Z,39.10
2023-02-09T00:41:47.236Z,38.85
2023-02-09T00:44:15.075Z,39.13
2023-02-09T00:46:42.742Z,36.13
2023-02-09T00:49:10.185Z,36.80
2023-02-09T00:51:37.935Z,40.65
2023-02-09T00:54:05.444Z,39.50
2023-02-09T00:56:32.959Z,37.05
2023-02-09T00:59:00.664Z,37.85
2023-02-09T01:01:28.125Z,37.30
2023-02-09T01:03:56.435Z,45.08
2023-02-09T01:06:23.830Z,40.15
2023-02-09T01:08:51.595Z,38.75
2023-02-09T01:11:19.138Z,36.38
2023-02-09T01:13:47.609Z,33.80
2023-02-09T01:16:17.389Z,33.13
2023-02-09T01:18:44.919Z,34.80
2023-02-09T01:21:14.170Z,34.72
2023-02-09T01:23:41.553Z,36.40
2023-02-09T01:26:10.381Z,38.22
2023-02-09T01:28:38.080Z,34.50
2023-02-09T01:31:17.366Z,40.63
2023-02-09T01:33:44.880Z,37.75
2023-02-09T01:36:12.042Z,35.22
2023-02-09T01:38:39.440Z,36.45
2023-02-09T01:41:06.828Z,38.63
2023-02-09T01:43:58.673Z,32.30
2023-02-09T01:46:31.403Z,37.88
2023-02-09T01:49:08.306Z,37.65
2023-02-09T01:51:39.698Z,30.48
2023-02-09T01:54:15.321Z,35.55
2023-02-09T01:56:47.880Z,36.65
2023-02-09T01:59:16.435Z,37.80
2023-02-09T02:01:44.154Z,33.53
2023-02-09T02:04:11.817Z,36.22
2023-02-09T02:06:40.068Z,32.92
2023-02-09T02:09:13.447Z,35.83
2023-02-09T02:11:43.494Z,31.90
2023-02-09T02:14:37.411Z,38.28
2023-02-09T02:17:25.825Z,38.30
2023-02-09T02:20:15.719Z,34.05
2023-02-09T02:23:00.417Z,39.17
2023-02-09T02:25:39.042Z,41.95
2023-02-09T02:28:45.634Z,36.72
2023-02-09T02:31:37.134Z,36.05
2023-02-09T02:34:11.696Z,34.25
2023-02-09T02:37:06.005Z,36.95
2023-02-09T02:40:10.651Z,37.33
2023-02-09T02:43:22.252Z,35.38
2023-02-09T02:46:07.358Z,37.13
2023-02-09T02:48:51.686Z,45.60
2023-02-09T02:51:29.688Z,46.95
2023-02-09T02:54:00.475Z,35.67
2023-02-09T02:56:36.991Z,35.67
2023-02-09T02:59:08.174Z,37.55
2023-02-09T03:01:45.608Z,35.80
2023-02-09T03:04:15.593Z,38.85
2023-02-09T03:06:43.248Z,40.10
2023-02-09T03:09:10.486Z,39.72
2023-02-09T03:11:42.187Z,40.80
2023-02-09T03:14:28.584Z,39.97
2023-02-09T03:17:24.904Z,39.28
2023-02-09T03:20:08.879Z,42.20
2023-02-09T03:22:41.161Z,41.70
2023-02-09T03:25:15.061Z,43.28
2023-02-09T03:27:49.013Z,39.92
2023-02-09T03:30:21.983Z,41.13
2023-02-09T03:32:49.299Z,39.35
2023-02-09T03:35:20.930Z,41.35
2023-02-09T03:37:48.154Z,39.53
2023-02-09T03:40:15.461Z,39.30
2023-02-09T03:42:42.674Z,42.20
2023-02-09T03:45:09.779Z,39.17
2023-02-09T03:47:36.680Z,41.60
2023-02-09T03:50:06.743Z,44.65
2023-02-09T03:52:34.116Z,40.15
2023-02-09T03:55:01.684Z,46.42
2023-02-09T03:57:35.301Z,42.72
2023-02-09T04:00:03.490Z,39.97
2023-02-09T04:02:30.398Z,37.53
2023-02-09T04:04:57.794Z,38.42
2023-02-09T04:07:25.193Z,40.63
2023-02-09T04:09:52.303Z,41.63
2023-02-09T04:12:19.482Z,39.80
2023-02-09T04:14:46.331Z,44.67
2023-02-09T04:17:13.307Z,41.42
2023-02-09T04:19:40.258Z,41.00
2023-02-09T04:22:08.249Z,42.35
2023-02-09T04:24:35.170Z,45.15
2023-02-09T04:27:02.080Z,40.65
2023-02-09T04:29:29.200Z,44.83
2023-02-09T04:31:56.524Z,40.15
2023-02-09T04:34:24.624Z,44.75
2023-02-09T04:36:51.826Z,42.15
2023-02-09T04:39:18.784Z,43.35
2023-02-09T04:41:45.776Z,44.35
2023-02-09T04:44:12.742Z,41.38
2023-02-09T04:46:40.061Z,44.10
2023-02-09T04:49:06.906Z,43.88
2023-02-09T04:51:33.950Z,42.15
2023-02-09T04:54:00.833Z,41.25
2023-02-09T04:56:27.710Z,36.47
2023-02-09T04:59:13.398Z,40.35
2023-02-09T05:01:40.500Z,41.00
2023-02-09T05:04:07.844Z,38.20
2023-02-09T05:06:35.018Z,38.88
2023-02-09T05:09:01.975Z,47.28
2023-02-09T05:11:29.041Z,45.97
2023-02-09T05:13:56.473Z,45.63
2023-02-09T05:16:23.494Z,51.80
2023-02-09T05:18:51.147Z,61.97
2023-02-09T05:21:18.126Z,64.28
2023-02-09T05:23:44.967Z,56.58
2023-02-09T05:26:12.085Z,53.80
2023-02-09T05:28:39.342Z,51.78
2023-02-09T05:31:06.571Z,48.80
2023-02-09T05:33:33.913Z,48.17
2023-02-09T05:36:01.431Z,44.67
2023-02-09T05:38:28.984Z,42.78
2023-02-09T05:40:55.963Z,48.33
2023-02-09T05:43:23.071Z,46.17
2023-02-09T05:45:50.110Z,45.70
2023-02-09T05:48:17.452Z,43.28
2023-02-09T05:50:44.612Z,42.03
2023-02-09T05:53:13.809Z,42.83
2023-02-09T05:55:42.276Z,45.83
2023-02-09T05:58:09.548Z,51.85
2023-02-09T06:00:36.571Z,56.15
2023-02-09T06:03:03.658Z,56.78
2023-02-09T06:05:30.844Z,51.50
2023-02-09T06:07:58.203Z,49.20
2023-02-09T06:10:25.118Z,51.83
2023-02-09T06:12:52.118Z,48.83
2023-02-09T06:15:19.145Z,55.42
2023-02-09T06:17:46.551Z,50.65
2023-02-09T06:20:13.563Z,49.03
2023-02-09T06:22:40.720Z,43.97
2023-02-09T06:25:07.968Z,40.50
2023-02-09T06:27:36.011Z,39.65
2023-02-09T06:30:03.407Z,37.90
2023-02-09T06:32:30.266Z,42.65
2023-02-09T06:34:57.242Z,41.97
2023-02-09T06:37:24.189Z,40.65
2023-02-09T06:39:51.477Z,42.58
2023-02-09T06:42:18.658Z,41.85
2023-02-09T06:44:45.617Z,44.45
2023-02-09T06:47:12.816Z,41.92
2023-02-09T06:49:39.821Z,40.92
2023-02-09T06:52:06.857Z,39.20
2023-02-09T06:54:33.868Z,45.55
2023-02-09T06:57:00.784Z,47.17
2023-02-09T06:59:27.811Z,42.95
2023-02-09T07:01:55.250Z,41.13
2023-02-09T07:04:23.142Z,41.33
2023-02-09T07:06:50.500Z,43.42
2023-02-09T07:09:17.373Z,41.80
2023-02-09T07:11:44.762Z,42.80
2023-02-09T07:14:11.824Z,41.22
2023-02-09T07:16:39.021Z,43.58
2023-02-09T07:19:06.024Z,43.83
2023-02-09T07:21:33.192Z,41.70
2023-02-09T07:24:00.337Z,44.15
2023-02-09T07:26:27.425Z,47.25
2023-02-09T07:28:54.416Z,42.88
2023-02-09T07:31:21.503Z,42.55
2023-02-09T07:33:48.599Z,43.30
2023-02-09T07:36:16.775Z,46.10
2023-02-09T07:38:44.404Z,45.10
2023-02-09T07:41:16.023Z,48.42
2023-02-09T07:43:42.959Z,46.78
2023-02-09T07:46:11.629Z,45.13
2023-02-09T07:48:38.741Z,39.60
2023-02-09T07:51:06.000Z,45.22
2023-02-09T07:53:33.767Z,45.20
2023-02-09T07:56:00.924Z,43.83
2023-02-09T07:58:28.352Z,47.42
2023-02-09T08:00:55.256Z,47.45
2023-02-09T08:03:23.930Z,47.28
2023-02-09T08:06:05.775Z,44.78
2023-02-09T08:08:32.794Z,51.90
2023-02-09T08:11:01.413Z,56.72
2023-02-09T08:13:34.081Z,46.60
2023-02-09T08:16:04.795Z,52.22
2023-02-09T08:18:44.853Z,53.25
2023-02-09T08:21:15.775Z,53.65
2023-02-09T08:23:44.546Z,53.45
2023-02-09T08:26:13.469Z,50.90
2023-02-09T08:28:44.914Z,52.83
2023-02-09T08:31:17.836Z,50.20
2023-02-09T08:33:47.295Z,52.30
2023-02-09T08:36:15.056Z,48.88
2023-02-09T08:38:42.159Z,52.25
2023-02-09T08:41:12.408Z,51.97
2023-02-09T08:43:39.956Z,52.63
2023-02-09T08:46:13.024Z,51.85
2023-02-09T08:48:42.388Z,53.80
2023-02-09T08:51:10.629Z,54.72
2023-02-09T08:53:37.686Z,57.63
2023-02-09T08:56:04.887Z,50.38
2023-02-09T08:58:33.357Z,48.97
2023-02-09T09:01:00.584Z,48.85
2023-02-09T09:03:31.388Z,45.35
2023-02-09T09:06:05.848Z,52.28
2023-02-09T09:08:34.867Z,42.80
2023-02-09T09:11:02.330Z,44.95
2023-02-09T09:13:29.912Z,43.67
2023-02-09T09:15:57.139Z,48.05
2023-02-09T09:18:25.724Z,44.92
2023-02-09T09:20:53.393Z,39.97
2023-02-09T09:23:21.414Z,50.95
2023-02-09T09:25:48.752Z,44.80
2023-02-09T09:28:17.571Z,43.05
2023-02-09T09:30:44.666Z,42.85
2023-02-09T09:33:11.791Z,42.97
2023-02-09T09:35:38.914Z,43.35
2023-02-09T09:38:06.430Z,48.88
2023-02-09T09:40:35.621Z,42.47
2023-02-09T09:43:06.069Z,44.03
2023-02-09T09:45:38.282Z,43.65
2023-02-09T09:48:18.365Z,42.78
2023-02-09T09:50:46.647Z,43.20
2023-02-09T09:53:33.357Z,46.35
2023-02-09T09:56:07.509Z,40.78
2023-02-09T09:58:39.238Z,44.53
2023-02-09T10:01:10.490Z,39.95
2023-02-09T10:03:37.515Z,44.10
2023-02-09T10:06:18.379Z,41.15
2023-02-09T10:09:06.392Z,41.58
2023-02-09T10:11:48.223Z,43.15
2023-02-09T10:14:15.997Z,42.08
2023-02-09T10:16:44.715Z,43.38
2023-02-09T10:19:19.252Z,44.72
2023-02-09T10:21:46.401Z,44.08
2023-02-09T10:24:25.743Z,46.75
2023-02-09T10:27:15.577Z,43.03
2023-02-09T10:29:42.814Z,43.70
2023-02-09T10:32:20.498Z,53.13
2023-02-09T10:34:51.185Z,44.00
2023-02-09T10:37:29.323Z,45.42
2023-02-09T10:40:06.352Z,38.33
2023-02-09T10:42:36.162Z,43.10
2023-02-09T10:45:11.141Z,44.58
2023-02-09T10:47:38.192Z,41.72
2023-02-09T10:50:11.061Z,45.20
2023-02-09T10:52:43.787Z,43.90
2023-02-09T10:55:21.645Z,45.70
2023-02-09T10:57:48.820Z,39.78
2023-02-09T11:00:16.040Z,40.85
2023-02-09T11:02:50.308Z,40.58
2023-02-09T11:05:23.243Z,41.38
2023-02-09T11:07:58.066Z,44.72
2023-02-09T11:10:27.520Z,39.75
2023-02-09T11:12:54.754Z,38.15
2023-02-09T11:15:28.088Z,40.72
2023-02-09T11:18:16.969Z,38.80
2023-02-09T11:21:07.033Z,37.78
2023-02-09T11:23:56.188Z,41.47
2023-02-09T11:26:47.638Z,41.78
2023-02-09T11:29:41.609Z,40.20
2023-02-09T11:32:24.372Z,42.53
2023-02-09T11:35:01.623Z,40.13
2023-02-09T11:37:36.972Z,38.35
2023-02-09T11:40:33.310Z,36.65
2023-02-09T11:43:17.675Z,40.88
2023-02-09T11:45:55.042Z,38.45
2023-02-09T11:48:29.266Z,35.50
2023-02-09T11:51:04.792Z,41.92
2023-02-09T11:53:41.136Z,37.42
2023-02-09T11:56:28.036Z,40.53
2023-02-09T11:59:03.874Z,41.03
2023-02-09T12:01:50.600Z,39.75
2023-02-09T12:04:38.024Z,35.13
2023-02-09T12:07:31.305Z,39.88
2023-02-09T12:10:35.662Z,35.30
2023-02-09T12:13:42.008Z,36.60
2023-02-09T12:16:16.161Z,39.58
2023-02-09T12:18:45.132Z,38.03
2023-02-09T12:21:12.737Z,36.33
2023-02-09T12:23:40.832Z,41.35
2023-02-09T12:26:16.963Z,36.38
2023-02-09T12:29:03.671Z,36.17
2023-02-09T12:31:51.597Z,38.58
2023-02-09T12:34:28.501Z,37.25
2023-02-09T12:37:12.604Z,39.38
2023-02-09T12:40:02.745Z,31.00
2023-02-09T12:42:39.707Z,33.65
2023-02-09T12:45:34.669Z,34.20
2023-02-09T12:48:13.432Z,35.25
2023-02-09T12:50:43.425Z,33.63
2023-02-09T12:53:22.734Z,32.92
2023-02-09T12:56:28.882Z,33.55
2023-02-09T12:59:12.981Z,32.35
2023-02-09T13:02:08.330Z,28.37
2023-02-09T13:07:15.236Z,27.67
2023-02-09T13:09:43.185Z,28.70
2023-02-09T13:12:18.287Z,33.72
2023-02-09T13:14:49.761Z,25.27
2023-02-09T13:17:29.819Z,26.77
2023-02-09T13:20:14.317Z,30.05
2023-02-09T13:22:49.106Z,31.90
2023-02-09T13:25:35.908Z,29.45
2023-02-09T13:28:22.581Z,30.48
2023-02-09T13:30:50.247Z,28.05
2023-02-09T13:33:36.488Z,27.85
2023-02-09T13:36:16.250Z,28.13
2023-02-09T13:38:50.170Z,29.77
2023-02-09T13:41:37.262Z,26.02
2023-02-09T13:44:04.591Z,25.80
2023-02-09T13:46:35.207Z,26.55
2023-02-09T13:49:15.695Z,25.10
2023-02-09T13:51:43.068Z,27.02
2023-02-09T13:54:21.120Z,27.48
2023-02-09T13:56:48.436Z,23.90
2023-02-09T13:59:17.610Z,27.77
2023-02-09T14:01:47.953Z,24.95
2023-02-09T14:04:22.362Z,26.45
2023-02-09T14:07:08.501Z,28.02
2023-02-09T14:10:01.552Z,26.45
2023-02-09T14:12:59.859Z,25.80
2023-02-09T14:15:55.867Z,33.25
2023-02-09T14:18:32.943Z,34.28
2023-02-09T14:21:13.907Z,29.33
2023-02-09T14:23:43.030Z,27.40
2023-02-09T14:26:28.408Z,26.42
2023-02-09T14:29:15.695Z,27.50
2023-02-09T14:31:58.373Z,27.83
2023-02-09T14:34:33.048Z,28.65
2023-02-09T14:39:31.479Z,29.38
2023-02-09T14:42:10.826Z,28.50
2023-02-09T14:44:46.738Z,24.25
2023-02-09T14:47:35.482Z,24.92
2023-02-09T14:50:02.601Z,29.48
2023-02-09T14:52:32.576Z,35.38
2023-02-09T14:55:04.479Z,30.67
2023-02-09T14:57:33.169Z,27.95
2023-02-09T15:00:00.159Z,28.42
2023-02-09T15:02:28.128Z,32.58
2023-02-09T15:04:55.474Z,28.58
2023-02-09T15:07:28.794Z,28.40
2023-02-09T15:09:56.011Z,26.65
2023-02-09T15:12:26.146Z,25.00
2023-02-09T15:14:59.158Z,25.90
2023-02-09T15:17:29.381Z,27.90
2023-02-09T15:19:57.725Z,26.80
2023-02-09T15:22:25.019Z,23.70
2023-02-09T15:24:54.440Z,26.58
2023-02-09T15:27:33.902Z,27.73
2023-02-09T15:30:04.297Z,29.20
2023-02-09T15:32:31.986Z,26.92
2023-02-09T15:34:59.117Z,24.30
2023-02-09T15:37:29.542Z,28.35
2023-02-09T15:40:01.901Z,28.33
2023-02-09T15:42:47.569Z,27.90
2023-02-09T15:45:44.686Z,30.83
2023-02-09T15:48:13.169Z,26.70
2023-02-09T15:50:46.847Z,25.30
2023-02-09T15:53:18.827Z,23.40
2023-02-09T15:55:46.941Z,26.05
2023-02-09T15:58:17.138Z,27.33
2023-02-09T16:00:44.687Z,28.05
2023-02-09T16:03:17.847Z,28.67
2023-02-09T16:05:46.032Z,32.28
2023-02-09T16:08:27.748Z,30.85
2023-02-09T16:10:54.810Z,35.55
2023-02-09T16:13:22.008Z,30.85
2023-02-09T16:15:49.209Z,29.45
2023-02-09T16:18:16.185Z,30.90
2023-02-09T16:20:50.019Z,30.73
2023-02-09T16:23:21.751Z,37.17
2023-02-09T16:25:53.417Z,34.42
2023-02-09T16:28:21.817Z,35.05
2023-02-09T16:30:52.778Z,33.60
2023-02-09T16:33:20.981Z,37.22
2023-02-09T16:36:00.660Z,35.03
2023-02-09T16:38:29.772Z,37.15
2023-02-09T16:40:57.060Z,37.22
2023-02-09T16:43:24.521Z,35.17
2023-02-09T16:46:02.825Z,34.13
2023-02-09T16:48:34.657Z,42.80
2023-02-09T16:51:02.213Z,38.88
2023-02-09T16:53:39.331Z,38.83
2023-02-09T16:56:10.135Z,43.35
2023-02-09T16:58:38.202Z,39.22
2023-02-09T17:01:19.122Z,39.92
2023-02-09T17:03:50.091Z,35.72
2023-02-09T17:06:21.324Z,36.72
2023-02-09T17:08:48.472Z,37.40
2023-02-09T17:11:23.244Z,38.72
2023-02-09T17:13:50.218Z,36.47
2023-02-09T17:16:28.343Z,36.30
2023-02-09T17:19:00.890Z,37.10
2023-02-09T17:21:31.534Z,35.30
2023-02-09T17:23:58.554Z,38.28
2023-02-09T17:26:25.697Z,41.85
2023-02-09T17:28:52.903Z,41.75
2023-02-09T17:31:26.642Z,40.10
2023-02-09T17:33:57.145Z,36.50
2023-02-09T17:36:27.484Z,39.00
2023-02-09T17:38:57.766Z,39.17
2023-02-09T17:41:37.288Z,42.90
2023-02-09T17:44:28.921Z,38.67
2023-02-09T17:47:03.334Z,41.60
2023-02-09T17:49:30.501Z,38.67
2023-02-09T17:51:57.789Z,39.83
2023-02-09T17:54:25.258Z,39.38
2023-02-09T17:56:52.437Z,39.45
2023-02-09T17:59:21.255Z,40.47
2023-02-09T18:01:50.410Z,39.22
2023-02-09T18:04:20.418Z,36.65
2023-02-09T18:06:48.327Z,43.65
2023-02-09T18:09:15.741Z,41.75
2023-02-09T18:11:46.017Z,37.53
2023-02-09T18:14:14.288Z,38.03
2023-02-09T18:16:42.617Z,37.92
2023-02-09T18:19:11.270Z,37.78
2023-02-09T18:21:39.176Z,39.70
2023-02-09T18:24:06.862Z,39.55
2023-02-09T18:26:34.803Z,41.22
2023-02-09T18:29:01.850Z,41.03
2023-02-09T18:31:28.738Z,43.78
2023-02-09T18:33:55.888Z,45.22
2023-02-09T18:36:22.984Z,45.25
2023-02-09T18:38:52.117Z,41.65
2023-02-09T18:41:19.418Z,43.35
2023-02-09T18:43:46.444Z,46.75
2023-02-09T18:46:14.615Z,52.20
2023-02-09T18:48:42.152Z,57.47
2023-02-09T18:51:10.193Z,57.05
2023-02-09T18:53:38.382Z,67.93
2023-02-09T18:56:05.767Z,70.32
2023-02-09T18:58:32.932Z,46.58
2023-02-09T19:01:00.366Z,44.00
2023-02-09T19:03:29.117Z,49.80
2023-02-09T19:05:57.123Z,53.17
2023-02-09T19:08:24.342Z,62.70
2023-02-09T19:10:51.702Z,55.33
2023-02-09T19:13:18.953Z,53.47
2023-02-09T19:15:46.536Z,52.10
2023-02-09T19:18:13.679Z,52.17
2023-02-09T19:20:40.703Z,46.05
2023-02-09T19:23:08.721Z,46.03
2023-02-09T19:25:36.548Z,54.80
2023-02-09T19:28:03.679Z,50.10
2023-02-09T19:30:31.079Z,47.58
2023-02-09T19:32:58.916Z,49.25
2023-02-09T19:35:26.379Z,54.92
2023-02-09T19:37:55.234Z,54.50
2023-02-09T19:40:41.323Z,52.17
2023-02-09T19:43:08.317Z,54.20
2023-02-09T19:45:37.963Z,52.30
2023-02-09T19:48:08.950Z,62.75
2023-02-09T19:50:36.924Z,59.63
2023-02-09T19:53:05.323Z,61.40
2023-02-09T19:55:32.404Z,56.40
2023-02-09T19:57:59.485Z,53.72
2023-02-09T20:00:26.793Z,57.70
2023-02-09T20:02:54.156Z,64.97
2023-02-09T20:05:21.404Z,65.95
2023-02-09T20:07:49.193Z,78.63
2023-02-09T20:10:16.351Z,80.25
2023-02-09T20:15:15.981Z,71.30
2023-02-09T20:17:44.476Z,68.35
2023-02-09T20:20:12.421Z,68.40
2023-02-09T20:22:39.380Z,70.03
2023-02-09T20:25:06.966Z,64.78
2023-02-09T20:27:34.643Z,65.47
2023-02-09T20:30:07.340Z,67.85
2023-02-09T20:32:36.618Z,71.50
2023-02-09T20:35:05.289Z,64.35
2023-02-09T20:37:32.531Z,62.78
2023-02-09T20:39:59.731Z,55.00
2023-02-09T20:42:45.215Z,52.92
2023-02-09T20:45:35.170Z,52.45
2023-02-09T20:48:04.097Z,56.35
2023-02-09T20:50:35.281Z,54.00
2023-02-09T20:53:02.711Z,66.53
2023-02-09T20:55:30.323Z,65.68
2023-02-09T20:57:57.494Z,62.10
2023-02-09T21:00:24.660Z,57.88
2023-02-09T21:02:52.541Z,53.08
2023-02-09T21:05:20.171Z,44.75
2023-02-09T21:07:50.366Z,46.58
2023-02-09T21:10:17.584Z,52.65
2023-02-09T21:12:44.841Z,50.33
2023-02-09T21:15:11.988Z,55.33
2023-02-09T21:17:45.402Z,51.72
2023-02-09T21:20:14.029Z,45.88
2023-02-09T21:22:41.236Z,47.17
2023-02-09T21:25:08.505Z,41.83
2023-02-09T21:27:35.556Z,50.83
2023-02-09T21:30:02.956Z,58.20
2023-02-09T21:32:30.285Z,51.50
2023-02-09T21:34:57.535Z,55.13
2023-02-09T21:37:24.959Z,47.78
2023-02-09T21:39:51.986Z,45.72
2023-02-09T21:42:28.830Z,48.80
2023-02-09T21:44:56.363Z,49.83
2023-02-09T21:47:28.286Z,52.72
2023-02-09T21:49:55.594Z,55.33
2023-02-09T21:52:23.542Z,63.45
2023-02-09T21:54:50.927Z,62.08
2023-02-09T21:57:18.212Z,69.50
2023-02-09T21:59:45.377Z,60.72
2023-02-09T22:02:17.075Z,62.88
2023-02-09T22:04:46.098Z,62.50
2023-02-09T22:07:14.238Z,72.72
2023-02-09T22:09:41.341Z,67.95
2023-02-09T22:12:08.689Z,59.15
2023-02-09T22:14:36.017Z,62.08
2023-02-09T22:17:03.369Z,50.38
2023-02-09T22:19:30.669Z,57.70
2023-02-09T22:21:58.130Z,51.38
2023-02-09T22:24:25.507Z,53.60
2023-02-09T22:26:52.595Z,49.13
2023-02-09T22:29:19.732Z,52.03
2023-02-09T22:31:46.981Z,53.08
2023-02-09T22:34:14.252Z,48.53
2023-02-09T22:36:41.486Z,58.67
2023-02-09T22:39:08.922Z,50.13
2023-02-09T22:41:36.169Z,53.42
2023-02-09T22:44:10.027Z,56.20
2023-02-09T22:46:42.077Z,54.08
2023-02-09T22:49:17.544Z,50.42
2023-02-09T22:51:45.503Z,52.97
2023-02-09T22:54:14.482Z,59.15
2023-02-09T22:56:41.699Z,46.08
2023-02-09T22:59:10.471Z,49.83
2023-02-09T23:01:38.097Z,53.17
2023-02-09T23:04:06.058Z,44.97
2023-02-09T23:06:33.256Z,50.88
2023-02-09T23:09:03.205Z,46.97
2023-02-09T23:11:31.483Z,50.97
2023-02-09T23:14:14.526Z,52.42
2023-02-09T23:16:42.832Z,46.83
2023-02-09T23:19:13.620Z,59.15
2023-02-09T23:21:43.956Z,51.38
2023-02-09T23:24:12.122Z,55.78
2023-02-09T23:26:39.455Z,54.60
2023-02-09T23:29:09.200Z,50.67
2023-02-09T23:31:36.820Z,46.65
2023-02-09T23:34:04.111Z,59.38
2023-02-09T23:36:32.854Z,49.70
2023-02-09T23:39:03.473Z,49.20
2023-02-09T23:41:30.740Z,47.60
2023-02-09T23:43:57.919Z,50.20
2023-02-09T23:46:28.593Z,52.75
2023-02-09T23:48:56.632Z,45.53
2023-02-09T23:51:35.541Z,48.22
2023-02-09T23:54:05.311Z,50.15
2023-02-09T23:56:36.977Z,51.88
2023-02-09T23:59:06.814Z,51.88
